Time;durP1;ratioP1;P1;durP2;ratioP2;P2;SDS_P1;SDS_P2;PMS_P1;PMS_P2;Temp;Humidity;BMP_temperature;BMP_pressure;BME280_temperature;BME280_humidity;BME280_pressure;Samples;Min_cycle;Max_cycle;Signal;HPM_P1;HPM_P2
2023/11/24 00:00:35;;;;;;;2.85;0.73;;;17.30;63.70;;;;;;5105360;28;20458;-67
2023/11/24 00:03:00;;;;;;;1.40;0.70;;;17.30;63.70;;;;;;5105158;28;21320;-66
2023/11/24 00:05:26;;;;;;;0.60;0.45;;;17.30;63.10;;;;;;5105846;28;20031;-65
2023/11/24 00:07:51;;;;;;;0.68;0.50;;;17.30;63.60;;;;;;5104791;28;20031;-66
2023/11/24 00:10:17;;;;;;;3.28;0.73;;;17.30;64.00;;;;;;5105595;28;20035;-69
2023/11/24 00:12:43;;;;;;;2.05;0.50;;;17.30;64.00;;;;;;5106054;28;20440;-68
2023/11/24 00:15:09;;;;;;;2.35;0.70;;;17.30;63.60;;;;;;5105506;28;20120;-68
2023/11/24 00:17:38;;;;;;;2.03;0.50;;;17.20;63.60;;;;;;5107152;28;20107;-68
2023/11/24 00:20:05;;;;;;;3.20;0.77;;;17.30;63.70;;;;;;5106161;28;20062;-69
2023/11/24 00:22:30;;;;;;;3.28;0.70;;;17.30;63.50;;;;;;5088212;28;20042;-68
2023/11/24 00:24:57;;;;;;;1.58;0.65;;;17.20;63.90;;;;;;5106705;28;20024;-68
2023/11/24 00:27:23;;;;;;;1.05;0.60;;;17.10;64.40;;;;;;5102613;28;20020;-68
2023/11/24 00:29:49;;;;;;;3.28;0.73;;;17.10;63.80;;;;;;5102272;28;20039;-68
2023/11/24 00:32:15;;;;;;;1.58;0.43;;;17.10;64.00;;;;;;5108321;28;20069;-66
2023/11/24 00:34:42;;;;;;;2.55;0.65;;;17.10;63.90;;;;;;5108819;28;20039;-67
2023/11/24 00:37:08;;;;;;;1.88;0.60;;;17.10;63.70;;;;;;5097469;28;20043;-68
2023/11/24 00:39:35;;;;;;;1.75;0.60;;;17.10;64.00;;;;;;5090648;28;20031;-69
2023/11/24 00:42:01;;;;;;;1.05;0.47;;;17.10;63.90;;;;;;5099518;28;20024;-68
2023/11/24 00:44:26;;;;;;;2.53;0.50;;;17.10;64.00;;;;;;5105174;28;20031;-66
2023/11/24 00:46:52;;;;;;;7.53;1.20;;;17.10;63.90;;;;;;5097849;28;20028;-66
2023/11/24 00:49:17;;;;;;;2.10;0.70;;;17.20;64.60;;;;;;5102680;28;20089;-68
2023/11/24 00:51:44;;;;;;;2.83;0.57;;;17.10;63.70;;;;;;5096254;28;20490;-68
2023/11/24 00:54:09;;;;;;;4.88;0.82;;;17.00;63.30;;;;;;5105074;28;20040;-68
2023/11/24 00:56:35;;;;;;;3.50;0.63;;;17.00;64.20;;;;;;5081569;28;20035;-67
2023/11/24 00:59:01;;;;;;;1.48;0.52;;;17.00;63.90;;;;;;5101696;28;20084;-68
2023/11/24 01:01:27;;;;;;;1.70;0.65;;;16.90;63.70;;;;;;5100895;28;20055;-68
2023/11/24 01:03:52;;;;;;;1.30;0.55;;;16.90;63.60;;;;;;5099160;28;20124;-68
2023/11/24 01:06:18;;;;;;;5.60;0.93;;;16.80;63.40;;;;;;5104846;28;20051;-68
2023/11/24 01:08:44;;;;;;;3.28;0.68;;;16.80;63.30;;;;;;5102393;28;20425;-67
2023/11/24 01:11:09;;;;;;;2.63;1.13;;;16.80;64.00;;;;;;5103576;28;20045;-67
2023/11/24 01:13:36;;;;;;;1.42;0.50;;;16.90;63.40;;;;;;5102048;28;20055;-67
2023/11/24 01:16:04;;;;;;;1.85;0.77;;;16.90;63.20;;;;;;5097931;28;20049;-67
2023/11/24 01:18:30;;;;;;;2.33;0.60;;;16.90;64.10;;;;;;5102703;28;20608;-67
2023/11/24 01:20:55;;;;;;;6.55;1.10;;;16.70;63.20;;;;;;5102672;28;20119;-67
2023/11/24 01:23:21;;;;;;;1.88;0.57;;;16.80;63.70;;;;;;5098157;28;20038;-68
2023/11/24 01:25:47;;;;;;;1.35;0.50;;;16.80;63.50;;;;;;5099469;28;20067;-67
2023/11/24 01:28:13;;;;;;;3.35;0.70;;;16.80;63.80;;;;;;5097907;28;20035;-66
2023/11/24 01:30:39;;;;;;;1.95;0.70;;;16.80;63.40;;;;;;5094792;28;20135;-66
2023/11/24 01:33:05;;;;;;;1.85;0.60;;;16.80;63.70;;;;;;5091235;28;20114;-66
2023/11/24 01:35:30;;;;;;;2.25;0.60;;;16.90;63.90;;;;;;5092065;28;20107;-67
2023/11/24 01:37:56;;;;;;;2.38;0.50;;;16.90;63.90;;;;;;5090838;28;20110;-65
2023/11/24 01:40:22;;;;;;;1.27;0.57;;;16.80;64.10;;;;;;5104648;28;20028;-67
2023/11/24 01:42:49;;;;;;;1.00;0.40;;;16.90;64.10;;;;;;5095287;28;20032;-65
2023/11/24 01:45:14;;;;;;;1.27;0.45;;;16.90;64.30;;;;;;5097228;28;20028;-67
2023/11/24 01:47:40;;;;;;;1.90;0.60;;;16.90;64.20;;;;;;5090938;28;20051;-66
2023/11/24 01:50:08;;;;;;;1.67;0.57;;;16.90;64.20;;;;;;5096542;28;20085;-68
2023/11/24 01:52:34;;;;;;;1.25;0.50;;;16.90;64.00;;;;;;5103958;28;20043;-67
2023/11/24 01:55:04;;;;;;;1.48;0.68;;;16.90;64.10;;;;;;5096239;28;20043;-67
2023/11/24 01:57:31;;;;;;;1.58;0.60;;;16.90;64.10;;;;;;5096997;28;20032;-67
2023/11/24 01:59:57;;;;;;;1.67;0.65;;;16.90;64.40;;;;;;5096565;28;20054;-68
2023/11/24 02:02:23;;;;;;;1.08;0.57;;;16.90;64.40;;;;;;5101133;28;20035;-67
2023/11/24 02:04:48;;;;;;;1.10;0.50;;;17.00;64.50;;;;;;5097609;28;20102;-68
2023/11/24 02:07:14;;;;;;;2.65;0.57;;;17.00;64.50;;;;;;5092736;28;20393;-66
2023/11/24 02:09:41;;;;;;;2.53;0.50;;;17.00;65.10;;;;;;5101201;28;20027;-66
2023/11/24 02:12:07;;;;;;;1.60;0.50;;;17.10;64.70;;;;;;5098267;28;20031;-66
2023/11/24 02:14:32;;;;;;;2.95;0.85;;;17.10;64.70;;;;;;5100495;28;20055;-65
2023/11/24 02:16:59;;;;;;;1.67;0.68;;;17.10;64.50;;;;;;5100364;28;20063;-66
2023/11/24 02:19:25;;;;;;;0.80;0.40;;;17.10;64.60;;;;;;5105765;28;20077;-66
2023/11/24 02:21:50;;;;;;;1.65;0.68;;;17.10;64.40;;;;;;5098632;28;20024;-66
2023/11/24 02:24:16;;;;;;;3.08;0.50;;;17.10;63.90;;;;;;5099766;28;20567;-65
2023/11/24 02:26:41;;;;;;;1.17;0.50;;;17.00;64.70;;;;;;5089175;28;20064;-66
2023/11/24 02:29:08;;;;;;;4.78;0.70;;;17.00;64.60;;;;;;5101284;28;20035;-67
2023/11/24 02:31:34;;;;;;;2.47;0.50;;;17.00;65.10;;;;;;5096843;28;20086;-67
2023/11/24 02:33:59;;;;;;;3.08;0.60;;;17.10;64.80;;;;;;5095331;28;20032;-66
2023/11/24 02:36:30;;;;;;;0.77;0.50;;;17.10;64.70;;;;;;5093344;28;20397;-67
2023/11/24 02:38:56;;;;;;;1.95;0.60;;;17.10;64.60;;;;;;5092901;28;20482;-66
2023/11/24 02:41:21;;;;;;;0.75;0.32;;;17.10;64.80;;;;;;5093807;28;20036;-67
2023/11/24 02:43:47;;;;;;;1.52;0.40;;;17.10;64.80;;;;;;5092704;28;20077;-66
2023/11/24 02:46:13;;;;;;;1.70;0.50;;;17.10;64.60;;;;;;5097979;28;20032;-67
2023/11/24 02:48:39;;;;;;;0.38;0.20;;;17.10;64.40;;;;;;5097533;28;20047;-65
2023/11/24 02:51:07;;;;;;;1.27;0.50;;;17.10;64.70;;;;;;5089013;28;20599;-67
2023/11/24 02:53:35;;;;;;;1.25;0.50;;;17.10;64.80;;;;;;5090631;28;20122;-67
2023/11/24 02:56:03;;;;;;;2.05;0.38;;;17.10;64.80;;;;;;5090880;28;20024;-67
2023/11/24 02:58:30;;;;;;;1.42;0.43;;;17.10;64.50;;;;;;5089836;28;20032;-67
2023/11/24 03:00:56;;;;;;;0.50;0.40;;;17.10;64.60;;;;;;5104288;28;20442;-65
2023/11/24 03:03:22;;;;;;;0.60;0.38;;;17.10;64.70;;;;;;5099772;28;20118;-67
2023/11/24 03:05:50;;;;;;;9.18;1.55;;;17.10;64.70;;;;;;5098350;28;20727;-67
2023/11/24 03:08:17;;;;;;;13.77;1.83;;;17.10;65.00;;;;;;5094769;28;20119;-66
2023/11/24 03:10:43;;;;;;;9.88;1.38;;;17.20;65.60;;;;;;5097344;28;20118;-67
2023/11/24 03:13:09;;;;;;;7.78;1.25;;;17.30;64.90;;;;;;5094168;28;20608;-67
2023/11/24 03:15:35;;;;;;;6.68;0.93;;;17.20;64.80;;;;;;5101896;28;20024;-66
2023/11/24 03:18:01;;;;;;;5.68;0.88;;;17.20;64.60;;;;;;5096251;28;20115;-67
2023/11/24 03:20:27;;;;;;;13.07;0.80;;;17.10;64.60;;;;;;5100407;28;20099;-67
2023/11/24 03:22:52;;;;;;;3.95;0.70;;;17.10;64.60;;;;;;5100508;28;20031;-66
2023/11/24 03:25:18;;;;;;;2.80;0.63;;;17.10;64.40;;;;;;5100569;28;20957;-67
2023/11/24 03:27:43;;;;;;;4.78;0.90;;;17.10;64.40;;;;;;5101003;28;20020;-66
2023/11/24 03:30:09;;;;;;;3.22;0.65;;;17.10;64.50;;;;;;5095006;28;20028;-66
2023/11/24 03:32:34;;;;;;;9.95;1.13;;;17.10;64.60;;;;;;5098317;28;20028;-66
2023/11/24 03:35:00;;;;;;;4.25;0.93;;;17.10;64.80;;;;;;5101359;28;20112;-66
2023/11/24 03:37:26;;;;;;;4.03;0.80;;;17.10;64.60;;;;;;5098430;28;20717;-66
2023/11/24 03:39:53;;;;;;;7.03;1.15;;;17.10;64.70;;;;;;5097648;28;20126;-66
2023/11/24 03:42:19;;;;;;;4.93;0.60;;;17.10;64.50;;;;;;5099990;28;20036;-66
2023/11/24 03:44:45;;;;;;;1.95;0.80;;;17.20;64.50;;;;;;5100132;28;20032;-66
2023/11/24 03:47:10;;;;;;;3.30;0.63;;;17.20;64.60;;;;;;5098294;28;20043;-65
2023/11/24 03:49:36;;;;;;;3.30;0.90;;;17.20;64.60;;;;;;5102705;28;20019;-65
2023/11/24 03:52:01;;;;;;;2.38;0.70;;;17.20;64.40;;;;;;5095087;28;20032;-66
2023/11/24 03:54:27;;;;;;;5.57;0.52;;;17.20;64.50;;;;;;5101323;28;20074;-65
2023/11/24 03:56:52;;;;;;;2.80;0.80;;;17.20;64.40;;;;;;5081363;28;20521;-65
2023/11/24 03:59:18;;;;;;;6.80;0.70;;;17.20;64.30;;;;;;5086901;28;20065;-66
2023/11/24 04:01:44;;;;;;;2.28;0.50;;;17.10;64.30;;;;;;5097495;28;20043;-65
2023/11/24 04:04:09;;;;;;;0.73;0.40;;;17.20;64.30;;;;;;5097635;28;20024;-66
2023/11/24 04:06:35;;;;;;;1.52;0.70;;;17.20;64.20;;;;;;5098605;28;20114;-65
2023/11/24 04:09:00;;;;;;;0.70;0.40;;;17.20;64.20;;;;;;5099081;28;20040;-66
2023/11/24 04:11:26;;;;;;;1.15;0.40;;;17.20;64.30;;;;;;5101651;28;20115;-65
2023/11/24 04:13:53;;;;;;;1.42;0.40;;;17.20;64.20;;;;;;5095832;28;20036;-66
2023/11/24 04:16:18;;;;;;;1.45;0.60;;;17.20;64.20;;;;;;5099397;28;20031;-66
2023/11/24 04:18:45;;;;;;;0.98;0.40;;;17.20;64.20;;;;;;5100932;28;20111;-65
2023/11/24 04:21:10;;;;;;;1.67;0.40;;;17.20;64.20;;;;;;5098235;28;20364;-65
2023/11/24 04:23:36;;;;;;;3.50;0.70;;;17.10;64.00;;;;;;5099949;28;20054;-61
2023/11/24 04:26:02;;;;;;;2.92;0.43;;;17.10;64.50;;;;;;5099309;28;20077;-66
2023/11/24 04:28:27;;;;;;;2.03;0.40;;;17.10;64.70;;;;;;5089214;28;20512;-64
2023/11/24 04:30:53;;;;;;;2.40;0.57;;;17.20;64.20;;;;;;5100592;28;20036;-67
2023/11/24 04:33:19;;;;;;;1.38;0.43;;;17.20;64.30;;;;;;5084783;28;20074;-66
2023/11/24 04:35:45;;;;;;;1.90;0.45;;;17.20;64.00;;;;;;5101405;28;20486;-66
2023/11/24 04:38:10;;;;;;;2.08;0.52;;;17.20;64.90;;;;;;5099446;28;20076;-67
2023/11/24 04:40:37;;;;;;;1.73;0.50;;;17.20;64.10;;;;;;5101558;28;20031;-64
2023/11/24 04:43:03;;;;;;;3.30;0.60;;;17.20;64.20;;;;;;5101988;28;20031;-65
2023/11/24 04:45:28;;;;;;;4.47;0.50;;;17.20;64.60;;;;;;5103237;28;20068;-66
2023/11/24 04:47:54;;;;;;;3.58;0.60;;;17.20;64.20;;;;;;5102076;28;20028;-62
2023/11/24 04:50:19;;;;;;;1.95;0.55;;;17.20;64.30;;;;;;5102609;28;20298;-65
2023/11/24 04:52:45;;;;;;;3.60;0.70;;;17.20;64.00;;;;;;5084370;28;20061;-67
2023/11/24 04:55:12;;;;;;;5.30;1.45;;;17.20;63.50;;;;;;5102584;28;20062;-66
2023/11/24 04:57:38;;;;;;;2.75;0.70;;;17.20;64.80;;;;;;5097535;28;20058;-66
2023/11/24 05:00:07;;;;;;;3.75;0.50;;;17.20;64.40;;;;;;5101640;28;20055;-65
2023/11/24 05:02:33;;;;;;;9.18;1.40;;;17.20;64.20;;;;;;5102744;28;20158;-66
2023/11/24 05:04:59;;;;;;;6.88;0.90;;;17.30;64.60;;;;;;5100383;28;20160;-66
2023/11/24 05:07:25;;;;;;;9.85;1.40;;;17.30;63.90;;;;;;5098679;28;20558;-66
2023/11/24 05:09:50;;;;;;;5.07;0.77;;;17.30;64.60;;;;;;5100498;28;20118;-67
2023/11/24 05:12:16;;;;;;;4.40;1.20;;;17.30;64.40;;;;;;5101010;28;20407;-66
2023/11/24 05:14:41;;;;;;;4.07;0.60;;;17.30;64.30;;;;;;5102543;28;20572;-66
2023/11/24 05:17:07;;;;;;;2.08;0.50;;;17.20;64.30;;;;;;5101879;28;20023;-67
2023/11/24 05:19:32;;;;;;;4.57;0.40;;;17.20;64.30;;;;;;5100256;28;20047;-67
2023/11/24 05:21:58;;;;;;;2.05;0.70;;;17.20;64.30;;;;;;5102209;28;20035;-66
2023/11/24 05:24:23;;;;;;;1.45;0.70;;;17.20;64.40;;;;;;5102695;28;20036;-66
2023/11/24 05:26:49;;;;;;;2.00;0.57;;;17.20;65.00;;;;;;5099231;28;20076;-67
2023/11/24 05:29:14;;;;;;;2.65;0.70;;;17.10;64.10;;;;;;5098365;28;20028;-66
2023/11/24 05:31:40;;;;;;;1.75;0.70;;;17.10;64.00;;;;;;5101160;28;20402;-66
2023/11/24 05:34:06;;;;;;;1.65;0.57;;;17.10;64.10;;;;;;5102331;28;20066;-66
2023/11/24 05:36:33;;;;;;;2.65;0.80;;;17.10;64.10;;;;;;5103103;28;20031;-66
2023/11/24 05:38:59;;;;;;;2.45;0.70;;;17.10;64.10;;;;;;5094253;28;20029;-67
2023/11/24 05:41:26;;;;;;;15.10;0.90;;;17.10;64.20;;;;;;5094071;28;20147;-67
2023/11/24 05:43:52;;;;;;;12.68;1.85;;;17.10;64.50;;;;;;5093196;28;20060;-67
2023/11/24 05:46:18;;;;;;;3.40;0.50;;;17.10;64.70;;;;;;5091672;28;20103;-68
2023/11/24 05:48:44;;;;;;;5.70;0.70;;;17.20;64.30;;;;;;5097481;28;21221;-66
2023/11/24 05:51:09;;;;;;;5.95;0.80;;;17.10;64.20;;;;;;5103256;28;20031;-67
2023/11/24 05:53:35;;;;;;;5.47;0.70;;;17.10;64.20;;;;;;5099684;28;20317;-66
2023/11/24 05:56:02;;;;;;;3.08;0.68;;;17.10;64.60;;;;;;5096726;28;20016;-67
2023/11/24 05:58:27;;;;;;;3.08;0.80;;;17.10;64.30;;;;;;5096356;28;20020;-67
2023/11/24 06:00:53;;;;;;;10.30;1.50;;;17.10;64.50;;;;;;5101659;28;20020;-69
2023/11/24 06:03:19;;;;;;;12.00;1.63;;;17.20;66.30;;;;;;5090239;28;20166;-67
2023/11/24 06:05:44;;;;;;;5.03;0.82;;;17.60;63.40;;;;;;5095811;28;20039;-66
2023/11/24 06:08:10;;;;;;;7.03;1.10;;;17.50;62.80;;;;;;5098611;28;20047;-67
2023/11/24 06:10:36;;;;;;;6.07;1.48;;;17.40;62.70;;;;;;5093315;28;20498;-67
2023/11/24 06:13:01;;;;;;;6.22;0.88;;;17.20;62.90;;;;;;5098786;28;20024;-65
2023/11/24 06:15:27;;;;;;;2.10;0.70;;;17.10;63.10;;;;;;5093063;28;20433;-65
2023/11/24 06:17:53;;;;;;;4.38;1.60;;;17.10;62.70;;;;;;5098413;28;20543;-66
2023/11/24 06:20:18;;;;;;;4.03;0.90;;;17.00;62.50;;;;;;5091436;28;20089;-65
2023/11/24 06:22:44;;;;;;;2.88;0.90;;;17.00;62.50;;;;;;5095386;28;20028;-64
2023/11/24 06:25:10;;;;;;;2.20;0.90;;;16.90;62.70;;;;;;5095109;28;20547;-66
2023/11/24 06:27:36;;;;;;;4.07;1.02;;;16.90;62.70;;;;;;5095736;28;20221;-66
2023/11/24 06:30:05;;;;;;;2.83;0.70;;;16.90;62.80;;;;;;5096250;28;20044;-66
2023/11/24 06:32:31;;;;;;;4.05;1.00;;;16.90;62.40;;;;;;5090754;28;20089;-66
2023/11/24 06:34:56;;;;;;;2.60;0.68;;;16.80;62.20;;;;;;5101870;28;20482;-66
2023/11/24 06:37:22;;;;;;;4.22;0.98;;;16.80;62.20;;;;;;5094888;28;20053;-67
2023/11/24 06:39:48;;;;;;;3.33;1.20;;;16.80;62.50;;;;;;5099515;28;20027;-67
2023/11/24 06:42:13;;;;;;;3.55;0.98;;;16.80;62.70;;;;;;5095757;28;20468;-66
2023/11/24 06:44:39;;;;;;;3.58;0.90;;;16.70;62.10;;;;;;5098125;28;20035;-67
2023/11/24 06:47:04;;;;;;;3.97;1.20;;;16.70;62.00;;;;;;5096248;28;20032;-66
2023/11/24 06:49:40;;;;;;;4.35;0.90;;;16.70;62.20;;;;;;5088717;28;20027;-65
2023/11/24 06:52:06;;;;;;;4.28;1.10;;;16.70;61.70;;;;;;5094878;28;20127;-67
2023/11/24 06:54:32;;;;;;;4.65;1.20;;;16.70;61.90;;;;;;5078751;28;20523;-66
2023/11/24 06:56:58;;;;;;;1.77;0.80;;;16.70;62.20;;;;;;5091105;28;20032;-66
2023/11/24 06:59:25;;;;;;;2.90;1.02;;;16.70;62.10;;;;;;5091677;28;20039;-67
2023/11/24 07:01:50;;;;;;;6.32;1.10;;;16.70;62.20;;;;;;5093079;28;20055;-67
2023/11/24 07:04:18;;;;;;;4.35;1.55;;;16.60;62.30;;;;;;5093223;28;20377;-66
2023/11/24 07:06:44;;;;;;;2.95;0.80;;;16.60;61.80;;;;;;5102649;28;20058;-66
2023/11/24 07:09:10;;;;;;;3.40;1.17;;;16.60;62.10;;;;;;5094467;28;20059;-66
2023/11/24 07:11:35;;;;;;;4.38;0.95;;;16.60;62.20;;;;;;5099518;28;20546;-66
2023/11/24 07:14:01;;;;;;;2.67;1.02;;;16.60;62.00;;;;;;5093005;28;20552;-66
2023/11/24 07:16:27;;;;;;;5.47;1.38;;;16.60;62.10;;;;;;5085614;28;20059;-66
2023/11/24 07:18:52;;;;;;;4.15;1.35;;;16.60;61.70;;;;;;5095561;28;20111;-66
2023/11/24 07:21:18;;;;;;;3.53;0.95;;;16.60;62.10;;;;;;5092070;28;20448;-67
2023/11/24 07:23:44;;;;;;;3.45;1.17;;;16.60;62.10;;;;;;5095890;28;20039;-67
2023/11/24 07:26:15;;;;;;;3.33;1.48;;;16.60;62.30;;;;;;5089724;28;20024;-66
2023/11/24 07:28:44;;;;;;;4.22;1.40;;;16.60;62.10;;;;;;5098714;28;20048;-68
2023/11/24 07:31:16;;;;;;;7.07;2.10;;;16.50;62.10;;;;;;5087002;28;20035;-67
2023/11/24 07:33:42;;;;;;;10.70;2.17;;;16.50;62.30;;;;;;5100920;28;20067;-66
2023/11/24 07:36:09;;;;;;;5.78;2.22;;;16.50;62.30;;;;;;5090320;28;20466;-67
2023/11/24 07:38:34;;;;;;;4.65;2.60;;;16.50;62.30;;;;;;5098190;28;20081;-66
2023/11/24 07:41:04;;;;;;;6.35;2.28;;;16.50;62.20;;;;;;5095700;28;20502;-67
2023/11/24 07:43:32;;;;;;;6.13;2.13;;;16.50;62.40;;;;;;5096348;28;20031;-66
2023/11/24 07:45:58;;;;;;;8.40;2.75;;;16.50;62.50;;;;;;5093691;28;20032;-66
2023/11/24 07:48:23;;;;;;;9.25;2.40;;;16.50;62.80;;;;;;5093610;28;20097;-68
2023/11/24 07:50:49;;;;;;;6.18;2.53;;;16.50;62.70;;;;;;5090886;28;20075;-66
2023/11/24 07:53:15;;;;;;;10.65;3.00;;;16.50;62.80;;;;;;5087093;28;20020;-65
2023/11/24 07:55:41;;;;;;;7.55;2.60;;;16.50;62.90;;;;;;5102982;28;20035;-65
2023/11/24 07:58:07;;;;;;;8.18;3.13;;;16.50;62.80;;;;;;5101438;28;20039;-66
2023/11/24 08:00:32;;;;;;;8.45;2.60;;;16.50;62.90;;;;;;5101146;28;20534;-66
2023/11/24 08:02:58;;;;;;;7.57;2.90;;;16.50;63.00;;;;;;5102647;28;20166;-66
2023/11/24 08:05:23;;;;;;;8.57;2.55;;;16.50;62.30;;;;;;5099671;28;20017;-66
2023/11/24 08:07:49;;;;;;;13.50;2.90;;;16.40;62.30;;;;;;5092206;28;20478;-65
2023/11/24 08:10:14;;;;;;;6.22;2.80;;;16.40;62.40;;;;;;5098619;28;20107;-64
2023/11/24 08:12:40;;;;;;;6.18;2.42;;;16.50;62.20;;;;;;5096187;28;20236;-64
2023/11/24 08:15:06;;;;;;;5.18;2.22;;;16.50;62.10;;;;;;5100319;28;20047;-65
2023/11/24 08:17:32;;;;;;;6.97;2.67;;;16.40;62.20;;;;;;5100590;28;20107;-66
2023/11/24 08:19:57;;;;;;;8.70;2.42;;;16.40;62.30;;;;;;5097903;28;20017;-66
2023/11/24 08:22:24;;;;;;;7.28;1.98;;;16.40;62.10;;;;;;5102222;28;20035;-62
2023/11/24 08:24:50;;;;;;;5.72;1.70;;;16.30;61.60;;;;;;5103387;28;20028;-65
2023/11/24 08:27:16;;;;;;;5.30;2.53;;;16.30;61.90;;;;;;5102818;28;20038;-65
2023/11/24 08:29:42;;;;;;;7.75;2.53;;;16.20;60.90;;;;;;5092016;28;20078;-66
2023/11/24 08:32:10;;;;;;;8.23;2.40;;;16.20;62.10;;;;;;5087322;28;20044;-67
2023/11/24 08:34:35;;;;;;;5.30;2.00;;;16.30;62.10;;;;;;5100275;28;20066;-65
2023/11/24 08:37:02;;;;;;;7.60;2.38;;;16.30;62.00;;;;;;5095012;28;20080;-66
2023/11/24 08:39:27;;;;;;;4.05;1.80;;;16.30;62.10;;;;;;5093730;28;20621;-66
2023/11/24 08:41:53;;;;;;;5.68;2.03;;;16.30;62.20;;;;;;5100788;28;20115;-65
2023/11/24 08:44:24;;;;;;;5.18;1.85;;;16.30;62.10;;;;;;5098619;28;20047;-65
2023/11/24 08:46:50;;;;;;;5.07;1.80;;;16.10;61.30;;;;;;5096738;28;20362;-65
2023/11/24 08:49:15;;;;;;;8.23;2.10;;;16.10;62.40;;;;;;5096554;28;20032;-67
2023/11/24 08:51:40;;;;;;;7.45;1.77;;;16.20;62.40;;;;;;5103520;28;20055;-64
2023/11/24 08:54:09;;;;;;;5.10;1.85;;;16.20;62.30;;;;;;5101681;28;20040;-65
2023/11/24 08:56:35;;;;;;;6.13;1.70;;;16.20;62.30;;;;;;5098644;28;20032;-67
2023/11/24 08:59:03;;;;;;;4.60;1.25;;;16.20;62.20;;;;;;5100159;28;20471;-67
2023/11/24 09:01:29;;;;;;;8.10;1.75;;;16.30;62.20;;;;;;5093147;28;20057;-67
2023/11/24 09:03:54;;;;;;;4.28;2.10;;;16.20;62.00;;;;;;5084389;28;20024;-67
2023/11/24 09:06:27;;;;;;;5.15;2.42;;;16.30;62.00;;;;;;5099621;28;20468;-65
2023/11/24 09:08:53;;;;;;;4.65;2.83;;;16.20;62.00;;;;;;5101035;28;20541;-67
2023/11/24 09:11:18;;;;;;;5.65;3.33;;;16.20;61.90;;;;;;5070562;28;20039;-67
2023/11/24 09:13:44;;;;;;;3.17;2.38;;;16.20;62.00;;;;;;5099888;28;20562;-66
2023/11/24 09:16:09;;;;;;;4.00;2.47;;;16.20;61.80;;;;;;5094228;28;20065;-66
2023/11/24 09:18:35;;;;;;;6.10;2.38;;;16.20;61.80;;;;;;5102117;28;20047;-64
2023/11/24 09:21:00;;;;;;;5.13;2.03;;;16.20;62.40;;;;;;5094674;28;20046;-68
2023/11/24 09:23:26;;;;;;;5.28;2.08;;;16.20;62.00;;;;;;5092126;28;20212;-67
2023/11/24 09:25:51;;;;;;;6.10;1.73;;;16.30;62.10;;;;;;5100342;28;20050;-67
2023/11/24 09:28:17;;;;;;;3.42;1.98;;;16.30;62.00;;;;;;5104931;28;20042;-67
2023/11/24 09:30:42;;;;;;;2.58;1.33;;;16.30;61.90;;;;;;5107042;28;20046;-67
2023/11/24 09:33:09;;;;;;;7.78;1.77;;;16.30;62.00;;;;;;5102898;28;20102;-66
2023/11/24 09:35:34;;;;;;;4.72;1.50;;;16.30;62.00;;;;;;5080901;28;20039;-67
2023/11/24 09:38:00;;;;;;;6.43;1.58;;;16.30;62.00;;;;;;5106596;28;20066;-67
2023/11/24 09:40:26;;;;;;;5.45;1.50;;;16.20;61.90;;;;;;5097700;28;20384;-67
2023/11/24 09:42:51;;;;;;;3.90;1.27;;;16.20;62.00;;;;;;5105063;28;20036;-66
2023/11/24 09:45:21;;;;;;;5.82;1.55;;;16.20;62.20;;;;;;5094297;28;20425;-67
2023/11/24 09:47:49;;;;;;;5.75;1.30;;;16.20;61.90;;;;;;5099642;28;20239;-68
2023/11/24 09:50:25;;;;;;;4.20;1.63;;;16.20;61.90;;;;;;5099602;28;20076;-64
2023/11/24 09:52:57;;;;;;;3.85;1.40;;;16.20;62.00;;;;;;5103595;28;20028;-65
2023/11/24 09:55:27;;;;;;;2.83;1.13;;;16.20;62.00;;;;;;5103260;28;20039;-61
2023/11/24 09:57:53;;;;;;;4.00;1.70;;;16.20;62.00;;;;;;5097752;28;20127;-66
2023/11/24 10:00:23;;;;;;;3.90;1.20;;;16.20;61.90;;;;;;5102271;28;20024;-63
2023/11/24 10:02:52;;;;;;;2.78;1.17;;;16.20;62.00;;;;;;5096443;28;20400;-64
2023/11/24 10:05:21;;;;;;;6.75;1.63;;;16.20;62.00;;;;;;5095643;28;20020;-67
2023/11/24 10:07:50;;;;;;;4.32;1.48;;;16.20;61.90;;;;;;5090326;28;20040;-67
2023/11/24 10:10:22;;;;;;;3.78;1.33;;;16.20;61.90;;;;;;5097838;28;20110;-64
2023/11/24 10:12:47;;;;;;;5.15;1.15;;;16.20;61.90;;;;;;5096093;28;20039;-67
2023/11/24 10:15:14;;;;;;;5.18;1.40;;;16.20;62.20;;;;;;5100659;28;20028;-67
2023/11/24 10:17:42;;;;;;;4.28;1.40;;;16.20;62.10;;;;;;5096564;28;20035;-66
2023/11/24 10:20:11;;;;;;;3.20;1.13;;;16.20;62.00;;;;;;5098232;28;20413;-66
2023/11/24 10:22:37;;;;;;;3.17;1.05;;;16.10;61.80;;;;;;5095792;28;20038;-67
2023/11/24 10:25:07;;;;;;;4.15;1.13;;;16.20;61.90;;;;;;5097330;28;20024;-65
2023/11/24 10:27:33;;;;;;;2.15;0.88;;;16.20;62.00;;;;;;5094280;28;20031;-65
2023/11/24 10:29:58;;;;;;;3.58;0.98;;;16.10;62.00;;;;;;5101188;28;20035;-66
2023/11/24 10:32:24;;;;;;;3.10;1.08;;;16.10;62.00;;;;;;5099803;28;20036;-67
2023/11/24 10:34:51;;;;;;;3.67;1.02;;;16.10;62.00;;;;;;5095218;28;20074;-66
2023/11/24 10:37:21;;;;;;;2.17;1.08;;;16.10;61.80;;;;;;5097476;28;20028;-66
2023/11/24 10:39:51;;;;;;;2.55;0.90;;;16.10;61.90;;;;;;5101660;28;20058;-66
2023/11/24 10:42:19;;;;;;;2.63;1.27;;;16.10;61.90;;;;;;5094321;28;20024;-66
2023/11/24 10:44:54;;;;;;;3.33;1.20;;;16.10;61.90;;;;;;5092255;28;20036;-66
2023/11/24 10:47:43;;;;;;;3.00;1.00;;;16.10;61.70;;;;;;5079751;28;20024;-66
2023/11/24 10:50:16;;;;;;;2.60;1.10;;;16.10;61.80;;;;;;5098142;28;20506;-66
2023/11/24 10:52:53;;;;;;;2.42;1.02;;;16.10;61.00;;;;;;5099969;28;20031;-66
2023/11/24 10:55:19;;;;;;;3.30;0.82;;;16.10;62.00;;;;;;5094425;28;20062;-66
2023/11/24 10:57:47;;;;;;;2.97;1.00;;;16.10;61.20;;;;;;5098854;28;20051;-66
2023/11/24 11:00:14;;;;;;;2.47;1.13;;;16.00;62.00;;;;;;5097946;28;20063;-64
2023/11/24 11:02:42;;;;;;;2.28;1.00;;;16.00;61.90;;;;;;5110093;28;20088;-66
2023/11/24 11:05:17;;;;;;;2.83;0.88;;;16.10;62.00;;;;;;5091451;28;20445;-66
2023/11/24 11:08:06;;;;;;;4.38;1.15;;;16.00;61.60;;;;;;5095801;28;20565;-65
2023/11/24 11:10:36;;;;;;;3.90;0.90;;;16.00;60.90;;;;;;5097699;28;20047;-66
2023/11/24 11:13:03;;;;;;;3.33;1.17;;;16.00;61.80;;;;;;5090618;28;20039;-66
2023/11/24 11:15:31;;;;;;;2.70;1.15;;;16.00;61.60;;;;;;5099649;28;20050;-66
2023/11/24 11:18:10;;;;;;;2.17;0.98;;;15.90;62.00;;;;;;5090532;28;20028;-66
2023/11/24 11:20:40;;;;;;;2.67;0.93;;;16.00;61.80;;;;;;5096778;28;20444;-66
2023/11/24 11:23:06;;;;;;;2.67;1.05;;;16.00;61.80;;;;;;5099732;28;20059;-66
2023/11/24 11:25:37;;;;;;;3.70;0.80;;;16.00;61.90;;;;;;5093022;28;20052;-66
2023/11/24 11:28:19;;;;;;;2.28;0.60;;;16.00;61.90;;;;;;5088203;28;20035;-66
2023/11/24 11:30:46;;;;;;;1.80;0.82;;;16.00;61.90;;;;;;5090009;28;20032;-66
2023/11/24 11:33:15;;;;;;;3.88;0.85;;;16.00;62.10;;;;;;5097224;28;20036;-66
2023/11/24 11:35:44;;;;;;;2.47;0.80;;;16.00;62.30;;;;;;5098736;28;20110;-65
2023/11/24 11:38:11;;;;;;;2.65;0.82;;;16.00;62.10;;;;;;5096269;28;20028;-66
2023/11/24 11:40:38;;;;;;;1.35;0.68;;;16.00;62.00;;;;;;5101352;28;20398;-65
2023/11/24 11:43:08;;;;;;;3.25;1.10;;;16.00;62.20;;;;;;5106104;28;20506;-66
2023/11/24 11:45:46;;;;;;;2.67;0.75;;;16.00;62.20;;;;;;5095174;28;20028;-65
2023/11/24 11:48:13;;;;;;;3.75;1.17;;;16.00;62.10;;;;;;5101742;28;20027;-65
2023/11/24 11:50:55;;;;;;;2.63;0.60;;;16.00;62.10;;;;;;5098072;28;20119;-66
2023/11/24 11:53:25;;;;;;;2.63;1.00;;;16.00;62.20;;;;;;5087299;28;20035;-65
2023/11/24 11:55:56;;;;;;;2.20;0.70;;;16.00;62.10;;;;;;5098042;28;20028;-66
2023/11/24 11:58:27;;;;;;;3.53;0.95;;;16.00;62.00;;;;;;5100218;28;20070;-65
2023/11/24 12:00:53;;;;;;;2.08;0.65;;;16.00;62.00;;;;;;5105605;28;20561;-66
2023/11/24 12:03:19;;;;;;;1.23;0.77;;;16.00;61.90;;;;;;5100747;28;20433;-65
2023/11/24 12:05:47;;;;;;;0.82;0.50;;;16.00;62.00;;;;;;5106000;28;20023;-67
2023/11/24 12:08:21;;;;;;;2.97;0.80;;;16.00;62.00;;;;;;5102497;28;20024;-65
2023/11/24 12:10:47;;;;;;;1.88;0.73;;;16.00;62.10;;;;;;5096623;28;20128;-66
2023/11/24 12:13:13;;;;;;;1.70;0.98;;;16.00;61.90;;;;;;5092424;28;20581;-65
2023/11/24 12:15:39;;;;;;;0.85;0.60;;;15.90;61.90;;;;;;5103015;28;20126;-65
2023/11/24 12:18:06;;;;;;;1.45;0.50;;;15.90;61.90;;;;;;5095632;28;20063;-66
2023/11/24 12:20:34;;;;;;;1.27;0.75;;;15.90;62.00;;;;;;5098131;28;20509;-65
2023/11/24 12:23:01;;;;;;;1.50;0.68;;;15.90;62.00;;;;;;5104113;28;20541;-66
2023/11/24 12:25:27;;;;;;;1.08;0.50;;;15.90;62.20;;;;;;5082713;28;20529;-65
2023/11/24 12:27:56;;;;;;;0.77;0.40;;;15.90;61.60;;;;;;5102538;28;20044;-66
2023/11/24 12:30:22;;;;;;;2.15;0.73;;;15.90;61.90;;;;;;5096208;28;20302;-66
2023/11/24 12:32:48;;;;;;;0.95;0.50;;;15.90;61.70;;;;;;5100263;28;20081;-64
2023/11/24 12:35:14;;;;;;;2.60;0.60;;;16.00;61.80;;;;;;5098654;28;20039;-65
2023/11/24 12:37:44;;;;;;;2.22;0.55;;;15.90;61.80;;;;;;5096927;28;20516;-66
2023/11/24 12:40:13;;;;;;;1.60;0.60;;;16.00;61.60;;;;;;5100250;28;20387;-66
2023/11/24 12:42:40;;;;;;;0.55;0.35;;;16.00;62.20;;;;;;5095735;28;20060;-66